sensor_id;sensor_type;location;lat;lon;timestamp;P1;durP1;ratioP1;P2;durP2;ratioP2
59127;SDS011;44912;52.754;5.994;2023-04-07T00:00:27;51.22;;;36.70;;
59127;SDS011;44912;52.754;5.994;2023-04-07T00:02:53;46.45;;;35.22;;
59127;SDS011;44912;52.754;5.994;2023-04-07T00:05:19;46.58;;;35.72;;
59127;SDS011;44912;52.754;5.994;2023-04-07T00:07:45;51.25;;;36.25;;
59127;SDS011;44912;52.754;5.994;2023-04-07T00:10:10;50.33;;;36.50;;
59127;SDS011;44912;52.754;5.994;2023-04-07T00:12:36;48.63;;;34.80;;
59127;SDS011;44912;52.754;5.994;2023-04-07T00:15:01;52.50;;;35.90;;
59127;SDS011;44912;52.754;5.994;2023-04-07T00:17:27;50.00;;;35.60;;
59127;SDS011;44912;52.754;5.994;2023-04-07T00:19:53;49.78;;;34.97;;
59127;SDS011;44912;52.754;5.994;2023-04-07T00:22:18;46.15;;;33.88;;
59127;SDS011;44912;52.754;5.994;2023-04-07T00:24:44;46.58;;;34.30;;
59127;SDS011;44912;52.754;5.994;2023-04-07T00:27:09;47.88;;;34.28;;
59127;SDS011;44912;52.754;5.994;2023-04-07T00:29:35;45.47;;;34.15;;
59127;SDS011;44912;52.754;5.994;2023-04-07T00:32:00;57.70;;;36.90;;
59127;SDS011;44912;52.754;5.994;2023-04-07T00:34:26;49.70;;;35.10;;
59127;SDS011;44912;52.754;5.994;2023-04-07T00:36:51;54.08;;;36.03;;
59127;SDS011;44912;52.754;5.994;2023-04-07T00:39:17;48.70;;;34.05;;
59127;SDS011;44912;52.754;5.994;2023-04-07T00:41:44;53.78;;;36.63;;
59127;SDS011;44912;52.754;5.994;2023-04-07T00:44:10;46.63;;;33.70;;
59127;SDS011;44912;52.754;5.994;2023-04-07T00:46:36;49.10;;;33.47;;
59127;SDS011;44912;52.754;5.994;2023-04-07T00:49:01;42.80;;;31.08;;
59127;SDS011;44912;52.754;5.994;2023-04-07T00:51:27;43.33;;;27.35;;
59127;SDS011;44912;52.754;5.994;2023-04-07T00:53:53;44.03;;;24.58;;
59127;SDS011;44912;52.754;5.994;2023-04-07T00:56:19;36.00;;;22.50;;
59127;SDS011;44912;52.754;5.994;2023-04-07T00:58:45;42.92;;;20.42;;
59127;SDS011;44912;52.754;5.994;2023-04-07T01:06:25;44.85;;;15.75;;
59127;SDS011;44912;52.754;5.994;2023-04-07T01:09:06;51.28;;;16.15;;
59127;SDS011;44912;52.754;5.994;2023-04-07T01:11:40;48.40;;;16.73;;
59127;SDS011;44912;52.754;5.994;2023-04-07T01:14:12;55.83;;;16.52;;
59127;SDS011;44912;52.754;5.994;2023-04-07T01:16:49;56.10;;;15.68;;
59127;SDS011;44912;52.754;5.994;2023-04-07T01:22:06;79.80;;;16.77;;
59127;SDS011;44912;52.754;5.994;2023-04-07T01:27:20;163.77;;;19.50;;
59127;SDS011;44912;52.754;5.994;2023-04-07T01:29:58;78.25;;;15.65;;
59127;SDS011;44912;52.754;5.994;2023-04-07T01:32:27;56.38;;;15.02;;
59127;SDS011;44912;52.754;5.994;2023-04-07T01:34:55;58.38;;;15.13;;
59127;SDS011;44912;52.754;5.994;2023-04-07T01:37:22;80.40;;;16.23;;
59127;SDS011;44912;52.754;5.994;2023-04-07T01:39:51;61.85;;;15.20;;
59127;SDS011;44912;52.754;5.994;2023-04-07T01:42:17;58.20;;;15.82;;
59127;SDS011;44912;52.754;5.994;2023-04-07T01:44:43;55.22;;;14.93;;
59127;SDS011;44912;52.754;5.994;2023-04-07T01:47:10;48.08;;;14.25;;
59127;SDS011;44912;52.754;5.994;2023-04-07T01:49:36;52.92;;;15.60;;
59127;SDS011;44912;52.754;5.994;2023-04-07T01:52:04;53.13;;;15.15;;
59127;SDS011;44912;52.754;5.994;2023-04-07T01:54:31;51.85;;;16.17;;
59127;SDS011;44912;52.754;5.994;2023-04-07T01:56:58;55.10;;;16.05;;
59127;SDS011;44912;52.754;5.994;2023-04-07T01:59:23;58.65;;;16.95;;
59127;SDS011;44912;52.754;5.994;2023-04-07T02:01:49;46.33;;;16.77;;
59127;SDS011;44912;52.754;5.994;2023-04-07T02:04:29;45.55;;;16.48;;
59127;SDS011;44912;52.754;5.994;2023-04-07T02:07:09;47.55;;;16.33;;
59127;SDS011;44912;52.754;5.994;2023-04-07T02:09:44;48.22;;;16.70;;
59127;SDS011;44912;52.754;5.994;2023-04-07T02:12:12;42.85;;;16.63;;
59127;SDS011;44912;52.754;5.994;2023-04-07T02:14:39;39.88;;;15.82;;
59127;SDS011;44912;52.754;5.994;2023-04-07T02:17:06;39.83;;;15.88;;
59127;SDS011;44912;52.754;5.994;2023-04-07T02:19:32;47.42;;;15.63;;
59127;SDS011;44912;52.754;5.994;2023-04-07T02:22:00;46.38;;;17.08;;
59127;SDS011;44912;52.754;5.994;2023-04-07T02:24:27;45.97;;;16.30;;
59127;SDS011;44912;52.754;5.994;2023-04-07T02:26:53;41.88;;;17.05;;
59127;SDS011;44912;52.754;5.994;2023-04-07T02:29:18;41.22;;;16.17;;
59127;SDS011;44912;52.754;5.994;2023-04-07T02:31:44;42.78;;;15.63;;
59127;SDS011;44912;52.754;5.994;2023-04-07T02:34:09;34.17;;;15.05;;
59127;SDS011;44912;52.754;5.994;2023-04-07T02:36:35;32.03;;;13.77;;
59127;SDS011;44912;52.754;5.994;2023-04-07T02:39:01;30.30;;;14.02;;
59127;SDS011;44912;52.754;5.994;2023-04-07T02:41:26;28.15;;;13.35;;
59127;SDS011;44912;52.754;5.994;2023-04-07T02:43:52;29.73;;;12.65;;
59127;SDS011;44912;52.754;5.994;2023-04-07T02:46:17;28.10;;;12.88;;
59127;SDS011;44912;52.754;5.994;2023-04-07T02:48:43;30.85;;;13.98;;
59127;SDS011;44912;52.754;5.994;2023-04-07T02:51:08;27.27;;;12.88;;
59127;SDS011;44912;52.754;5.994;2023-04-07T02:53:34;32.15;;;13.40;;
59127;SDS011;44912;52.754;5.994;2023-04-07T02:56:00;30.60;;;13.20;;
59127;SDS011;44912;52.754;5.994;2023-04-07T02:58:25;28.48;;;12.88;;
59127;SDS011;44912;52.754;5.994;2023-04-07T03:00:51;25.48;;;11.45;;
59127;SDS011;44912;52.754;5.994;2023-04-07T03:03:16;29.48;;;11.60;;
59127;SDS011;44912;52.754;5.994;2023-04-07T03:05:42;28.55;;;12.13;;
59127;SDS011;44912;52.754;5.994;2023-04-07T03:08:08;30.38;;;12.55;;
59127;SDS011;44912;52.754;5.994;2023-04-07T03:10:33;29.10;;;12.07;;
59127;SDS011;44912;52.754;5.994;2023-04-07T03:13:00;33.25;;;13.13;;
59127;SDS011;44912;52.754;5.994;2023-04-07T03:15:25;26.75;;;11.48;;
59127;SDS011;44912;52.754;5.994;2023-04-07T03:17:51;30.10;;;11.13;;
59127;SDS011;44912;52.754;5.994;2023-04-07T03:20:16;32.08;;;11.80;;
59127;SDS011;44912;52.754;5.994;2023-04-07T03:22:42;28.55;;;12.43;;
59127;SDS011;44912;52.754;5.994;2023-04-07T03:25:08;27.08;;;11.23;;
59127;SDS011;44912;52.754;5.994;2023-04-07T03:27:35;29.05;;;11.15;;
59127;SDS011;44912;52.754;5.994;2023-04-07T03:30:00;27.52;;;11.32;;
59127;SDS011;44912;52.754;5.994;2023-04-07T03:32:26;27.98;;;11.57;;
59127;SDS011;44912;52.754;5.994;2023-04-07T03:34:52;23.58;;;10.82;;
59127;SDS011;44912;52.754;5.994;2023-04-07T03:37:17;27.98;;;10.70;;
59127;SDS011;44912;52.754;5.994;2023-04-07T03:39:43;28.00;;;11.13;;
59127;SDS011;44912;52.754;5.994;2023-04-07T03:42:08;27.77;;;10.90;;
59127;SDS011;44912;52.754;5.994;2023-04-07T03:44:34;25.98;;;11.43;;
59127;SDS011;44912;52.754;5.994;2023-04-07T03:46:59;29.35;;;11.07;;
59127;SDS011;44912;52.754;5.994;2023-04-07T03:49:25;30.90;;;11.88;;
59127;SDS011;44912;52.754;5.994;2023-04-07T03:51:51;22.90;;;10.77;;
59127;SDS011;44912;52.754;5.994;2023-04-07T03:54:16;28.40;;;11.77;;
59127;SDS011;44912;52.754;5.994;2023-04-07T03:56:42;28.30;;;11.48;;
59127;SDS011;44912;52.754;5.994;2023-04-07T03:59:07;30.48;;;12.75;;
59127;SDS011;44912;52.754;5.994;2023-04-07T04:01:33;26.30;;;11.85;;
59127;SDS011;44912;52.754;5.994;2023-04-07T04:04:00;24.48;;;11.93;;
59127;SDS011;44912;52.754;5.994;2023-04-07T04:06:26;31.67;;;12.65;;
59127;SDS011;44912;52.754;5.994;2023-04-07T04:08:52;25.88;;;11.95;;
59127;SDS011;44912;52.754;5.994;2023-04-07T04:11:17;28.65;;;11.98;;
59127;SDS011;44912;52.754;5.994;2023-04-07T04:13:43;29.23;;;12.88;;
59127;SDS011;44912;52.754;5.994;2023-04-07T04:16:08;31.75;;;12.90;;
59127;SDS011;44912;52.754;5.994;2023-04-07T04:18:34;36.60;;;13.57;;
59127;SDS011;44912;52.754;5.994;2023-04-07T04:20:59;33.47;;;14.43;;
59127;SDS011;44912;52.754;5.994;2023-04-07T04:23:25;29.95;;;12.80;;
59127;SDS011;44912;52.754;5.994;2023-04-07T04:25:51;32.30;;;14.10;;
59127;SDS011;44912;52.754;5.994;2023-04-07T04:28:16;29.02;;;13.60;;
59127;SDS011;44912;52.754;5.994;2023-04-07T04:30:42;31.42;;;13.25;;
59127;SDS011;44912;52.754;5.994;2023-04-07T04:33:07;28.80;;;14.10;;
59127;SDS011;44912;52.754;5.994;2023-04-07T04:35:33;27.60;;;13.88;;
59127;SDS011;44912;52.754;5.994;2023-04-07T04:37:58;26.88;;;13.80;;
59127;SDS011;44912;52.754;5.994;2023-04-07T04:40:24;27.00;;;13.82;;
59127;SDS011;44912;52.754;5.994;2023-04-07T04:42:49;32.83;;;13.45;;
59127;SDS011;44912;52.754;5.994;2023-04-07T04:45:15;27.27;;;13.88;;
59127;SDS011;44912;52.754;5.994;2023-04-07T04:47:41;28.00;;;13.07;;
59127;SDS011;44912;52.754;5.994;2023-04-07T04:50:08;25.90;;;13.38;;
59127;SDS011;44912;52.754;5.994;2023-04-07T04:52:34;26.77;;;12.88;;
59127;SDS011;44912;52.754;5.994;2023-04-07T04:54:59;23.85;;;12.50;;
59127;SDS011;44912;52.754;5.994;2023-04-07T04:57:25;26.80;;;12.90;;
59127;SDS011;44912;52.754;5.994;2023-04-07T04:59:50;22.83;;;12.77;;
59127;SDS011;44912;52.754;5.994;2023-04-07T05:02:16;24.13;;;12.73;;
59127;SDS011;44912;52.754;5.994;2023-04-07T05:04:41;23.02;;;12.35;;
59127;SDS011;44912;52.754;5.994;2023-04-07T05:07:07;19.83;;;12.13;;
59127;SDS011;44912;52.754;5.994;2023-04-07T05:09:33;24.10;;;12.50;;
59127;SDS011;44912;52.754;5.994;2023-04-07T05:11:58;23.30;;;13.10;;
59127;SDS011;44912;52.754;5.994;2023-04-07T05:14:25;26.15;;;12.35;;
59127;SDS011;44912;52.754;5.994;2023-04-07T05:16:51;20.17;;;10.90;;
59127;SDS011;44912;52.754;5.994;2023-04-07T05:19:18;25.23;;;12.57;;
59127;SDS011;44912;52.754;5.994;2023-04-07T05:21:46;24.95;;;12.00;;
59127;SDS011;44912;52.754;5.994;2023-04-07T05:24:12;19.70;;;11.18;;
59127;SDS011;44912;52.754;5.994;2023-04-07T05:26:37;24.38;;;11.07;;
59127;SDS011;44912;52.754;5.994;2023-04-07T05:29:03;24.90;;;11.88;;
59127;SDS011;44912;52.754;5.994;2023-04-07T05:31:28;19.92;;;11.20;;
59127;SDS011;44912;52.754;5.994;2023-04-07T05:33:54;20.25;;;10.98;;
59127;SDS011;44912;52.754;5.994;2023-04-07T05:36:19;18.25;;;10.20;;
59127;SDS011;44912;52.754;5.994;2023-04-07T05:38:45;22.73;;;11.32;;
59127;SDS011;44912;52.754;5.994;2023-04-07T05:41:11;23.30;;;11.70;;
59127;SDS011;44912;52.754;5.994;2023-04-07T05:43:36;18.40;;;10.45;;
59127;SDS011;44912;52.754;5.994;2023-04-07T05:46:02;24.35;;;10.82;;
59127;SDS011;44912;52.754;5.994;2023-04-07T05:48:27;19.30;;;10.23;;
59127;SDS011;44912;52.754;5.994;2023-04-07T05:50:53;23.00;;;10.60;;
59127;SDS011;44912;52.754;5.994;2023-04-07T05:53:18;22.13;;;10.65;;
59127;SDS011;44912;52.754;5.994;2023-04-07T05:55:44;24.00;;;10.85;;
59127;SDS011;44912;52.754;5.994;2023-04-07T05:58:09;20.10;;;10.70;;
59127;SDS011;44912;52.754;5.994;2023-04-07T06:00:35;21.98;;;10.88;;
59127;SDS011;44912;52.754;5.994;2023-04-07T06:03:00;16.13;;;10.48;;
59127;SDS011;44912;52.754;5.994;2023-04-07T06:05:27;18.70;;;10.02;;
59127;SDS011;44912;52.754;5.994;2023-04-07T06:07:53;20.20;;;10.73;;
59127;SDS011;44912;52.754;5.994;2023-04-07T06:10:18;16.58;;;10.00;;
59127;SDS011;44912;52.754;5.994;2023-04-07T06:12:44;17.08;;;9.90;;
59127;SDS011;44912;52.754;5.994;2023-04-07T06:15:09;16.45;;;10.00;;
59127;SDS011;44912;52.754;5.994;2023-04-07T06:17:35;16.98;;;10.20;;
59127;SDS011;44912;52.754;5.994;2023-04-07T06:20:01;15.07;;;9.80;;
59127;SDS011;44912;52.754;5.994;2023-04-07T06:22:26;16.95;;;10.35;;
59127;SDS011;44912;52.754;5.994;2023-04-07T06:24:52;20.40;;;10.23;;
59127;SDS011;44912;52.754;5.994;2023-04-07T06:27:17;14.95;;;9.25;;
59127;SDS011;44912;52.754;5.994;2023-04-07T06:29:43;16.13;;;9.95;;
59127;SDS011;44912;52.754;5.994;2023-04-07T06:32:08;15.90;;;9.50;;
59127;SDS011;44912;52.754;5.994;2023-04-07T06:34:34;16.45;;;10.18;;
59127;SDS011;44912;52.754;5.994;2023-04-07T06:37:00;15.13;;;9.57;;
59127;SDS011;44912;52.754;5.994;2023-04-07T06:39:26;14.20;;;9.30;;
59127;SDS011;44912;52.754;5.994;2023-04-07T06:41:52;17.20;;;9.77;;
59127;SDS011;44912;52.754;5.994;2023-04-07T06:44:17;15.13;;;9.13;;
59127;SDS011;44912;52.754;5.994;2023-04-07T06:46:43;12.82;;;8.35;;
59127;SDS011;44912;52.754;5.994;2023-04-07T06:49:11;14.65;;;8.68;;
59127;SDS011;44912;52.754;5.994;2023-04-07T06:51:36;13.18;;;8.52;;
59127;SDS011;44912;52.754;5.994;2023-04-07T06:54:02;14.73;;;9.13;;
59127;SDS011;44912;52.754;5.994;2023-04-07T06:56:29;14.65;;;8.93;;
59127;SDS011;44912;52.754;5.994;2023-04-07T06:58:55;12.65;;;8.52;;
59127;SDS011;44912;52.754;5.994;2023-04-07T07:01:20;12.95;;;9.15;;
59127;SDS011;44912;52.754;5.994;2023-04-07T07:03:46;12.57;;;8.73;;
59127;SDS011;44912;52.754;5.994;2023-04-07T07:06:12;12.90;;;8.40;;
59127;SDS011;44912;52.754;5.994;2023-04-07T07:08:37;12.65;;;8.20;;
59127;SDS011;44912;52.754;5.994;2023-04-07T07:11:03;12.57;;;7.95;;
59127;SDS011;44912;52.754;5.994;2023-04-07T07:13:28;13.13;;;8.15;;
59127;SDS011;44912;52.754;5.994;2023-04-07T07:15:54;12.48;;;7.93;;
59127;SDS011;44912;52.754;5.994;2023-04-07T07:18:20;13.90;;;8.73;;
59127;SDS011;44912;52.754;5.994;2023-04-07T07:20:45;14.05;;;8.43;;
59127;SDS011;44912;52.754;5.994;2023-04-07T07:23:11;12.63;;;8.07;;
59127;SDS011;44912;52.754;5.994;2023-04-07T07:25:36;10.35;;;7.13;;
59127;SDS011;44912;52.754;5.994;2023-04-07T07:28:02;11.43;;;7.60;;
59127;SDS011;44912;52.754;5.994;2023-04-07T07:30:28;11.05;;;6.85;;
59127;SDS011;44912;52.754;5.994;2023-04-07T07:32:54;11.38;;;6.97;;
59127;SDS011;44912;52.754;5.994;2023-04-07T07:35:20;10.05;;;5.90;;
59127;SDS011;44912;52.754;5.994;2023-04-07T07:37:46;8.93;;;6.20;;
59127;SDS011;44912;52.754;5.994;2023-04-07T07:40:12;9.90;;;5.88;;
59127;SDS011;44912;52.754;5.994;2023-04-07T07:42:38;12.27;;;6.32;;
59127;SDS011;44912;52.754;5.994;2023-04-07T07:45:04;10.68;;;5.65;;
59127;SDS011;44912;52.754;5.994;2023-04-07T07:47:30;10.23;;;5.97;;
59127;SDS011;44912;52.754;5.994;2023-04-07T07:49:56;9.65;;;6.28;;
59127;SDS011;44912;52.754;5.994;2023-04-07T07:52:22;10.32;;;6.25;;
59127;SDS011;44912;52.754;5.994;2023-04-07T07:54:48;9.60;;;5.30;;
59127;SDS011;44912;52.754;5.994;2023-04-07T07:57:14;8.70;;;5.65;;
59127;SDS011;44912;52.754;5.994;2023-04-07T07:59:40;8.13;;;5.20;;
59127;SDS011;44912;52.754;5.994;2023-04-07T08:02:06;7.53;;;4.78;;
59127;SDS011;44912;52.754;5.994;2023-04-07T08:04:33;8.02;;;4.72;;
59127;SDS011;44912;52.754;5.994;2023-04-07T08:06:59;7.30;;;4.28;;
59127;SDS011;44912;52.754;5.994;2023-04-07T08:09:25;7.10;;;4.18;;
59127;SDS011;44912;52.754;5.994;2023-04-07T08:11:51;8.75;;;5.18;;
59127;SDS011;44912;52.754;5.994;2023-04-07T08:14:16;6.63;;;4.00;;
59127;SDS011;44912;52.754;5.994;2023-04-07T08:16:42;6.57;;;3.72;;
59127;SDS011;44912;52.754;5.994;2023-04-07T08:19:08;8.65;;;4.20;;
59127;SDS011;44912;52.754;5.994;2023-04-07T08:21:34;7.82;;;4.00;;
59127;SDS011;44912;52.754;5.994;2023-04-07T08:24:00;7.60;;;4.07;;
59127;SDS011;44912;52.754;5.994;2023-04-07T08:26:25;8.73;;;5.00;;
59127;SDS011;44912;52.754;5.994;2023-04-07T08:28:51;12.13;;;8.32;;
59127;SDS011;44912;52.754;5.994;2023-04-07T08:31:17;14.20;;;11.27;;
59127;SDS011;44912;52.754;5.994;2023-04-07T08:33:43;14.05;;;11.05;;
59127;SDS011;44912;52.754;5.994;2023-04-07T08:36:09;14.27;;;11.23;;
59127;SDS011;44912;52.754;5.994;2023-04-07T08:38:35;15.18;;;11.57;;
59127;SDS011;44912;52.754;5.994;2023-04-07T08:41:07;14.45;;;11.55;;
59127;SDS011;44912;52.754;5.994;2023-04-07T08:43:37;15.35;;;11.32;;
59127;SDS011;44912;52.754;5.994;2023-04-07T08:46:03;15.25;;;11.90;;
59127;SDS011;44912;52.754;5.994;2023-04-07T08:48:29;16.40;;;12.18;;
59127;SDS011;44912;52.754;5.994;2023-04-07T08:51:00;14.98;;;11.60;;
59127;SDS011;44912;52.754;5.994;2023-04-07T08:53:35;13.80;;;10.90;;
59127;SDS011;44912;52.754;5.994;2023-04-07T08:56:06;14.05;;;11.68;;
59127;SDS011;44912;52.754;5.994;2023-04-07T08:58:32;14.55;;;11.98;;
59127;SDS011;44912;52.754;5.994;2023-04-07T09:01:00;17.73;;;12.05;;
59127;SDS011;44912;52.754;5.994;2023-04-07T09:03:28;13.52;;;11.13;;
59127;SDS011;44912;52.754;5.994;2023-04-07T09:05:56;14.40;;;11.50;;
59127;SDS011;44912;52.754;5.994;2023-04-07T09:08:23;12.15;;;10.00;;
59127;SDS011;44912;52.754;5.994;2023-04-07T09:10:48;13.48;;;9.93;;
59127;SDS011;44912;52.754;5.994;2023-04-07T09:13:14;11.60;;;8.68;;
59127;SDS011;44912;52.754;5.994;2023-04-07T09:15:40;12.40;;;9.57;;
59127;SDS011;44912;52.754;5.994;2023-04-07T09:18:06;13.05;;;9.73;;
59127;SDS011;44912;52.754;5.994;2023-04-07T09:23:45;12.65;;;9.48;;
59127;SDS011;44912;52.754;5.994;2023-04-07T09:26:20;12.57;;;9.75;;
59127;SDS011;44912;52.754;5.994;2023-04-07T09:28:52;12.52;;;9.75;;
59127;SDS011;44912;52.754;5.994;2023-04-07T09:31:18;13.55;;;9.68;;
59127;SDS011;44912;52.754;5.994;2023-04-07T09:33:45;13.48;;;11.23;;
59127;SDS011;44912;52.754;5.994;2023-04-07T09:36:11;13.95;;;11.00;;
59127;SDS011;44912;52.754;5.994;2023-04-07T09:38:38;15.48;;;11.93;;
59127;SDS011;44912;52.754;5.994;2023-04-07T09:41:09;14.18;;;11.05;;
59127;SDS011;44912;52.754;5.994;2023-04-07T09:43:39;12.07;;;10.00;;
59127;SDS011;44912;52.754;5.994;2023-04-07T09:46:18;12.45;;;10.02;;
59127;SDS011;44912;52.754;5.994;2023-04-07T09:48:44;10.93;;;8.55;;
59127;SDS011;44912;52.754;5.994;2023-04-07T09:51:14;12.00;;;9.20;;
59127;SDS011;44912;52.754;5.994;2023-04-07T09:56:10;12.38;;;9.77;;
59127;SDS011;44912;52.754;5.994;2023-04-07T09:58:39;13.45;;;9.35;;
59127;SDS011;44912;52.754;5.994;2023-04-07T10:01:07;11.88;;;8.93;;
59127;SDS011;44912;52.754;5.994;2023-04-07T10:03:34;10.13;;;7.13;;
59127;SDS011;44912;52.754;5.994;2023-04-07T10:06:00;9.48;;;6.10;;
59127;SDS011;44912;52.754;5.994;2023-04-07T10:08:31;9.52;;;6.55;;
59127;SDS011;44912;52.754;5.994;2023-04-07T10:10:59;9.50;;;6.88;;
59127;SDS011;44912;52.754;5.994;2023-04-07T10:13:27;9.27;;;6.88;;
59127;SDS011;44912;52.754;5.994;2023-04-07T10:15:54;10.05;;;7.28;;
59127;SDS011;44912;52.754;5.994;2023-04-07T10:18:21;11.82;;;8.38;;
59127;SDS011;44912;52.754;5.994;2023-04-07T10:20:49;11.23;;;8.50;;
59127;SDS011;44912;52.754;5.994;2023-04-07T10:23:21;13.23;;;9.18;;
59127;SDS011;44912;52.754;5.994;2023-04-07T10:25:52;11.27;;;8.52;;
59127;SDS011;44912;52.754;5.994;2023-04-07T10:28:20;13.35;;;7.40;;
59127;SDS011;44912;52.754;5.994;2023-04-07T10:30:48;10.90;;;7.20;;
59127;SDS011;44912;52.754;5.994;2023-04-07T10:33:14;11.15;;;8.35;;
59127;SDS011;44912;52.754;5.994;2023-04-07T10:38:29;12.30;;;9.68;;
59127;SDS011;44912;52.754;5.994;2023-04-07T10:40:55;14.77;;;11.23;;
59127;SDS011;44912;52.754;5.994;2023-04-07T10:43:37;15.63;;;11.65;;
59127;SDS011;44912;52.754;5.994;2023-04-07T10:46:04;15.63;;;12.63;;
59127;SDS011;44912;52.754;5.994;2023-04-07T10:48:30;15.95;;;12.18;;
59127;SDS011;44912;52.754;5.994;2023-04-07T10:53:29;15.95;;;13.48;;
59127;SDS011;44912;52.754;5.994;2023-04-07T10:56:02;16.38;;;13.52;;
59127;SDS011;44912;52.754;5.994;2023-04-07T10:58:28;17.60;;;13.63;;
59127;SDS011;44912;52.754;5.994;2023-04-07T11:08:38;15.02;;;12.55;;
59127;SDS011;44912;52.754;5.994;2023-04-07T11:11:06;15.02;;;12.32;;
59127;SDS011;44912;52.754;5.994;2023-04-07T11:16:09;15.50;;;12.98;;
59127;SDS011;44912;52.754;5.994;2023-04-07T11:18:35;16.65;;;13.38;;
59127;SDS011;44912;52.754;5.994;2023-04-07T11:21:02;15.68;;;13.63;;
59127;SDS011;44912;52.754;5.994;2023-04-07T11:23:36;14.75;;;11.25;;
59127;SDS011;44912;52.754;5.994;2023-04-07T11:26:03;14.38;;;11.45;;
59127;SDS011;44912;52.754;5.994;2023-04-07T11:28:29;14.15;;;10.70;;
59127;SDS011;44912;52.754;5.994;2023-04-07T11:30:55;13.10;;;11.05;;
59127;SDS011;44912;52.754;5.994;2023-04-07T11:33:23;13.77;;;11.30;;
59127;SDS011;44912;52.754;5.994;2023-04-07T11:35:55;14.05;;;10.30;;
59127;SDS011;44912;52.754;5.994;2023-04-07T11:38:22;13.75;;;10.55;;
59127;SDS011;44912;52.754;5.994;2023-04-07T11:40:52;11.95;;;9.60;;
59127;SDS011;44912;52.754;5.994;2023-04-07T11:43:19;12.43;;;10.40;;
59127;SDS011;44912;52.754;5.994;2023-04-07T11:46:05;13.20;;;9.70;;
59127;SDS011;44912;52.754;5.994;2023-04-07T11:48:38;11.23;;;8.95;;
59127;SDS011;44912;52.754;5.994;2023-04-07T11:51:05;12.00;;;9.30;;
59127;SDS011;44912;52.754;5.994;2023-04-07T11:53:38;11.57;;;9.18;;
59127;SDS011;44912;52.754;5.994;2023-04-07T11:58:33;12.07;;;9.25;;
59127;SDS011;44912;52.754;5.994;2023-04-07T12:01:01;11.07;;;9.27;;
59127;SDS011;44912;52.754;5.994;2023-04-07T12:03:30;11.50;;;9.45;;
59127;SDS011;44912;52.754;5.994;2023-04-07T12:05:57;11.25;;;9.23;;
59127;SDS011;44912;52.754;5.994;2023-04-07T12:08:42;12.25;;;9.23;;
59127;SDS011;44912;52.754;5.994;2023-04-07T12:11:08;11.98;;;9.98;;
59127;SDS011;44912;52.754;5.994;2023-04-07T12:13:35;12.50;;;9.95;;
59127;SDS011;44912;52.754;5.994;2023-04-07T12:16:01;12.38;;;10.07;;
59127;SDS011;44912;52.754;5.994;2023-04-07T12:18:27;12.50;;;10.15;;
59127;SDS011;44912;52.754;5.994;2023-04-07T12:20:53;12.60;;;9.80;;
59127;SDS011;44912;52.754;5.994;2023-04-07T12:23:19;11.40;;;9.38;;
59127;SDS011;44912;52.754;5.994;2023-04-07T12:25:45;13.10;;;9.82;;
59127;SDS011;44912;52.754;5.994;2023-04-07T12:28:10;11.82;;;9.43;;
59127;SDS011;44912;52.754;5.994;2023-04-07T12:30:36;12.15;;;9.63;;
59127;SDS011;44912;52.754;5.994;2023-04-07T12:33:01;11.90;;;9.82;;
59127;SDS011;44912;52.754;5.994;2023-04-07T12:35:28;11.32;;;9.40;;
59127;SDS011;44912;52.754;5.994;2023-04-07T12:37:54;12.13;;;9.60;;
59127;SDS011;44912;52.754;5.994;2023-04-07T12:40:20;10.75;;;9.10;;
59127;SDS011;44912;52.754;5.994;2023-04-07T12:42:50;11.43;;;9.00;;
59127;SDS011;44912;52.754;5.994;2023-04-07T12:45:15;10.32;;;8.68;;
59127;SDS011;44912;52.754;5.994;2023-04-07T12:47:43;11.30;;;8.63;;
59127;SDS011;44912;52.754;5.994;2023-04-07T12:50:08;12.27;;;9.68;;
59127;SDS011;44912;52.754;5.994;2023-04-07T12:52:35;11.10;;;8.88;;
59127;SDS011;44912;52.754;5.994;2023-04-07T12:55:01;10.00;;;8.23;;
59127;SDS011;44912;52.754;5.994;2023-04-07T12:57:26;9.90;;;8.02;;
59127;SDS011;44912;52.754;5.994;2023-04-07T12:59:52;11.02;;;8.52;;
59127;SDS011;44912;52.754;5.994;2023-04-07T13:02:19;11.20;;;8.75;;
59127;SDS011;44912;52.754;5.994;2023-04-07T13:04:45;10.52;;;8.55;;
59127;SDS011;44912;52.754;5.994;2023-04-07T13:07:14;10.25;;;7.72;;
59127;SDS011;44912;52.754;5.994;2023-04-07T13:09:43;9.25;;;7.38;;
59127;SDS011;44912;52.754;5.994;2023-04-07T13:12:09;8.95;;;6.90;;
59127;SDS011;44912;52.754;5.994;2023-04-07T13:14:36;8.43;;;6.55;;
59127;SDS011;44912;52.754;5.994;2023-04-07T13:17:03;10.02;;;7.15;;
59127;SDS011;44912;52.754;5.994;2023-04-07T13:19:28;9.60;;;6.43;;
59127;SDS011;44912;52.754;5.994;2023-04-07T13:21:54;8.98;;;6.30;;
59127;SDS011;44912;52.754;5.994;2023-04-07T13:24:20;8.35;;;5.95;;
59127;SDS011;44912;52.754;5.994;2023-04-07T13:26:46;7.72;;;5.80;;
59127;SDS011;44912;52.754;5.994;2023-04-07T13:29:11;8.35;;;6.07;;
59127;SDS011;44912;52.754;5.994;2023-04-07T13:31:37;8.45;;;6.45;;
59127;SDS011;44912;52.754;5.994;2023-04-07T13:34:02;8.90;;;6.53;;
59127;SDS011;44912;52.754;5.994;2023-04-07T13:36:28;8.80;;;6.80;;
59127;SDS011;44912;52.754;5.994;2023-04-07T13:38:54;9.25;;;6.97;;
59127;SDS011;44912;52.754;5.994;2023-04-07T13:41:20;10.82;;;7.95;;
59127;SDS011;44912;52.754;5.994;2023-04-07T13:43:46;8.30;;;6.40;;
59127;SDS011;44912;52.754;5.994;2023-04-07T13:46:12;8.70;;;6.50;;
59127;SDS011;44912;52.754;5.994;2023-04-07T13:48:42;8.82;;;5.70;;
59127;SDS011;44912;52.754;5.994;2023-04-07T13:51:09;7.82;;;5.88;;
59127;SDS011;44912;52.754;5.994;2023-04-07T13:53:35;7.80;;;5.63;;
59127;SDS011;44912;52.754;5.994;2023-04-07T13:56:00;8.18;;;5.50;;
59127;SDS011;44912;52.754;5.994;2023-04-07T13:58:27;8.82;;;5.90;;
59127;SDS011;44912;52.754;5.994;2023-04-07T14:00:53;8.25;;;6.03;;
59127;SDS011;44912;52.754;5.994;2023-04-07T14:03:20;10.13;;;5.97;;
59127;SDS011;44912;52.754;5.994;2023-04-07T14:05:46;10.10;;;7.90;;
59127;SDS011;44912;52.754;5.994;2023-04-07T14:08:12;10.52;;;8.45;;
59127;SDS011;44912;52.754;5.994;2023-04-07T14:10:38;10.55;;;8.20;;
59127;SDS011;44912;52.754;5.994;2023-04-07T14:13:04;10.60;;;8.80;;
59127;SDS011;44912;52.754;5.994;2023-04-07T14:15:30;11.55;;;8.52;;
59127;SDS011;44912;52.754;5.994;2023-04-07T14:17:56;10.65;;;8.10;;
59127;SDS011;44912;52.754;5.994;2023-04-07T14:20:21;10.45;;;8.40;;
59127;SDS011;44912;52.754;5.994;2023-04-07T14:22:47;10.65;;;8.43;;
59127;SDS011;44912;52.754;5.994;2023-04-07T14:25:12;9.70;;;8.05;;
59127;SDS011;44912;52.754;5.994;2023-04-07T14:27:38;10.82;;;8.10;;
59127;SDS011;44912;52.754;5.994;2023-04-07T14:30:04;10.23;;;7.90;;
59127;SDS011;44912;52.754;5.994;2023-04-07T14:32:30;11.93;;;7.82;;
59127;SDS011;44912;52.754;5.994;2023-04-07T14:34:57;11.35;;;8.80;;
59127;SDS011;44912;52.754;5.994;2023-04-07T14:37:23;11.20;;;8.40;;
59127;SDS011;44912;52.754;5.994;2023-04-07T14:39:50;9.98;;;7.75;;
59127;SDS011;44912;52.754;5.994;2023-04-07T14:42:17;10.10;;;7.43;;
59127;SDS011;44912;52.754;5.994;2023-04-07T14:44:43;9.80;;;7.93;;
59127;SDS011;44912;52.754;5.994;2023-04-07T14:47:08;10.45;;;8.00;;
59127;SDS011;44912;52.754;5.994;2023-04-07T14:49:34;10.48;;;7.65;;
59127;SDS011;44912;52.754;5.994;2023-04-07T14:51:59;9.43;;;7.38;;
59127;SDS011;44912;52.754;5.994;2023-04-07T14:54:25;11.30;;;7.43;;
59127;SDS011;44912;52.754;5.994;2023-04-07T14:56:50;10.13;;;7.82;;
59127;SDS011;44912;52.754;5.994;2023-04-07T14:59:16;9.98;;;7.32;;